Terminal Aerodrome Forecast
Issued by NWS

Home | Current Version | Previous Version | Text Only | Print | Product List | Glossary On
Versions: 1 2 3 4 5 6 7 8 9 10 11 12 13
000
FTUS45 KRIW 291700
TAFBPI
TAF
KBPI 291726Z 2918/3018 VRB04KT P6SM FEW100
     FM292000 32010KT P6SM VCTS SCT080CB BKN120
     FM300300 VRB05KT P6SM VCSH BKN110
     FM301600 26012G18KT P6SM VCSH SCT080 BKN110=

USA.gov is the U.S. government's official web portal to all federal, state and local government web resources and services.